createdAt,value
2024-02-03T10:39:07.777Z,9.90
2024-02-03T10:41:39.990Z,14.00
2024-02-03T10:44:09.976Z,16.70
2024-02-03T10:46:40.256Z,18.40
2024-02-03T10:49:14.504Z,19.30
2024-02-03T10:51:45.960Z,20.00
2024-02-03T10:54:18.485Z,20.50
2024-02-03T10:56:51.395Z,20.80
2024-02-03T11:12:15.608Z,19.90
2024-02-03T11:14:46.044Z,19.20
2024-02-03T11:17:15.436Z,18.90
2024-02-03T11:19:45.781Z,18.90
2024-02-03T11:22:18.182Z,18.80
2024-02-03T11:24:46.273Z,18.80
2024-02-03T11:27:15.677Z,18.90
2024-02-03T11:29:43.693Z,18.90
2024-02-03T11:32:12.146Z,18.80
2024-02-03T11:34:42.776Z,18.80
2024-02-03T11:37:15.210Z,18.80
2024-02-03T11:39:43.964Z,18.80
2024-02-03T11:42:12.492Z,18.80
2024-02-03T11:44:52.632Z,18.80
2024-02-03T11:47:22.885Z,18.80
2024-02-03T11:49:52.700Z,18.90
2024-02-03T11:52:24.483Z,18.90
2024-02-03T11:54:54.000Z,19.00
2024-02-03T11:57:22.516Z,18.90
2024-02-03T12:00:00.402Z,19.00
2024-02-03T12:02:28.961Z,19.00
2024-02-03T12:04:57.050Z,19.00
2024-02-03T12:07:25.398Z,19.10
2024-02-03T12:09:54.002Z,19.00
2024-02-03T12:12:25.797Z,19.10
2024-02-03T12:14:56.188Z,19.00
2024-02-03T12:17:26.552Z,19.00
2024-02-03T12:19:58.960Z,19.00
2024-02-03T12:23:32.457Z,19.00
2024-02-03T12:28:04.426Z,18.90
2024-02-03T12:30:37.147Z,19.20
2024-02-03T12:33:06.694Z,19.00
2024-02-03T12:35:34.739Z,19.00
2024-02-03T12:38:03.141Z,19.10
2024-02-03T12:40:31.186Z,19.10
2024-02-03T12:42:59.189Z,19.10
2024-02-03T12:45:28.653Z,19.10
2024-02-03T12:47:56.707Z,19.00
2024-02-03T12:50:24.789Z,19.10
2024-02-03T12:52:53.044Z,19.10
2024-02-03T12:55:21.128Z,19.10
2024-02-03T12:57:49.881Z,19.10
